sensor_id;sensor_type;location;lat;lon;timestamp;P1;durP1;ratioP1;P2;durP2;ratioP2
59052;SDS011;44843;44.728;10.396;2023-03-14T00:02:07;13.57;;;8.68;;
59052;SDS011;44843;44.728;10.396;2023-03-14T00:04:33;23.77;;;9.10;;
59052;SDS011;44843;44.728;10.396;2023-03-14T00:06:58;13.25;;;8.55;;
59052;SDS011;44843;44.728;10.396;2023-03-14T00:09:23;13.57;;;7.95;;
59052;SDS011;44843;44.728;10.396;2023-03-14T00:11:49;16.55;;;8.27;;
59052;SDS011;44843;44.728;10.396;2023-03-14T00:14:14;15.27;;;8.95;;
59052;SDS011;44843;44.728;10.396;2023-03-14T00:16:41;16.95;;;8.25;;
59052;SDS011;44843;44.728;10.396;2023-03-14T00:19:07;13.45;;;8.45;;
59052;SDS011;44843;44.728;10.396;2023-03-14T00:21:33;16.58;;;9.05;;
59052;SDS011;44843;44.728;10.396;2023-03-14T00:23:58;16.35;;;8.27;;
59052;SDS011;44843;44.728;10.396;2023-03-14T00:26:24;19.15;;;8.45;;
59052;SDS011;44843;44.728;10.396;2023-03-14T00:28:53;12.27;;;7.63;;
59052;SDS011;44843;44.728;10.396;2023-03-14T00:31:18;12.55;;;7.53;;
59052;SDS011;44843;44.728;10.396;2023-03-14T00:33:44;14.18;;;7.25;;
59052;SDS011;44843;44.728;10.396;2023-03-14T00:36:12;10.73;;;6.68;;
59052;SDS011;44843;44.728;10.396;2023-03-14T00:38:39;10.43;;;6.70;;
59052;SDS011;44843;44.728;10.396;2023-03-14T00:41:07;10.55;;;7.25;;
59052;SDS011;44843;44.728;10.396;2023-03-14T00:43:40;20.40;;;7.55;;
59052;SDS011;44843;44.728;10.396;2023-03-14T00:46:05;12.43;;;7.70;;
59052;SDS011;44843;44.728;10.396;2023-03-14T00:48:31;11.32;;;7.10;;
59052;SDS011;44843;44.728;10.396;2023-03-14T00:50:56;16.45;;;8.77;;
59052;SDS011;44843;44.728;10.396;2023-03-14T00:53:22;10.90;;;7.50;;
59052;SDS011;44843;44.728;10.396;2023-03-14T00:55:48;19.27;;;9.60;;
59052;SDS011;44843;44.728;10.396;2023-03-14T00:58:14;16.65;;;9.10;;
59052;SDS011;44843;44.728;10.396;2023-03-14T01:00:41;22.40;;;10.23;;
59052;SDS011;44843;44.728;10.396;2023-03-14T01:03:07;20.20;;;9.98;;
59052;SDS011;44843;44.728;10.396;2023-03-14T01:05:33;20.10;;;9.95;;
59052;SDS011;44843;44.728;10.396;2023-03-14T01:07:58;22.48;;;10.82;;
59052;SDS011;44843;44.728;10.396;2023-03-14T01:10:24;17.52;;;11.07;;
59052;SDS011;44843;44.728;10.396;2023-03-14T01:12:50;19.00;;;11.15;;
59052;SDS011;44843;44.728;10.396;2023-03-14T01:15:15;17.25;;;9.40;;
59052;SDS011;44843;44.728;10.396;2023-03-14T01:17:41;19.85;;;11.15;;
59052;SDS011;44843;44.728;10.396;2023-03-14T01:20:07;19.60;;;11.73;;
59052;SDS011;44843;44.728;10.396;2023-03-14T01:22:35;16.30;;;8.85;;
59052;SDS011;44843;44.728;10.396;2023-03-14T01:25:03;18.80;;;10.88;;
59052;SDS011;44843;44.728;10.396;2023-03-14T01:27:29;19.42;;;11.68;;
59052;SDS011;44843;44.728;10.396;2023-03-14T01:29:54;19.90;;;11.88;;
59052;SDS011;44843;44.728;10.396;2023-03-14T01:32:20;21.35;;;13.48;;
59052;SDS011;44843;44.728;10.396;2023-03-14T01:34:45;22.05;;;10.95;;
59052;SDS011;44843;44.728;10.396;2023-03-14T01:37:11;21.65;;;11.45;;
59052;SDS011;44843;44.728;10.396;2023-03-14T01:39:37;20.20;;;10.98;;
59052;SDS011;44843;44.728;10.396;2023-03-14T01:42:03;19.83;;;10.38;;
59052;SDS011;44843;44.728;10.396;2023-03-14T01:44:28;19.13;;;11.77;;
59052;SDS011;44843;44.728;10.396;2023-03-14T01:47:10;17.75;;;10.18;;
59052;SDS011;44843;44.728;10.396;2023-03-14T01:49:35;17.35;;;10.82;;
59052;SDS011;44843;44.728;10.396;2023-03-14T01:52:10;15.52;;;10.25;;
59052;SDS011;44843;44.728;10.396;2023-03-14T01:54:39;18.58;;;10.77;;
59052;SDS011;44843;44.728;10.396;2023-03-14T01:59:42;14.63;;;10.15;;
59052;SDS011;44843;44.728;10.396;2023-03-14T02:02:11;19.17;;;10.40;;
59052;SDS011;44843;44.728;10.396;2023-03-14T02:04:37;17.25;;;10.60;;
59052;SDS011;44843;44.728;10.396;2023-03-14T02:09:53;19.75;;;10.57;;
59052;SDS011;44843;44.728;10.396;2023-03-14T02:12:20;20.00;;;10.35;;
59052;SDS011;44843;44.728;10.396;2023-03-14T02:14:47;18.65;;;10.50;;
59052;SDS011;44843;44.728;10.396;2023-03-14T02:17:13;19.73;;;11.98;;
59052;SDS011;44843;44.728;10.396;2023-03-14T02:22:33;20.90;;;12.10;;
59052;SDS011;44843;44.728;10.396;2023-03-14T02:25:43;18.85;;;11.77;;
59052;SDS011;44843;44.728;10.396;2023-03-14T02:27:47;16.58;;;11.05;;
59052;SDS011;44843;44.728;10.396;2023-03-14T02:30:21;20.15;;;11.02;;
59052;SDS011;44843;44.728;10.396;2023-03-14T02:32:56;19.65;;;10.00;;
59052;SDS011;44843;44.728;10.396;2023-03-14T02:37:53;16.38;;;10.20;;
59052;SDS011;44843;44.728;10.396;2023-03-14T02:40:22;18.23;;;9.77;;
59052;SDS011;44843;44.728;10.396;2023-03-14T02:42:48;14.85;;;10.38;;
59052;SDS011;44843;44.728;10.396;2023-03-14T02:47:40;17.52;;;10.45;;
59052;SDS011;44843;44.728;10.396;2023-03-14T02:50:10;15.80;;;10.50;;
59052;SDS011;44843;44.728;10.396;2023-03-14T02:52:39;18.67;;;10.65;;
59052;SDS011;44843;44.728;10.396;2023-03-14T02:55:04;19.20;;;11.55;;
59052;SDS011;44843;44.728;10.396;2023-03-14T02:57:30;18.70;;;11.68;;
59052;SDS011;44843;44.728;10.396;2023-03-14T02:59:59;18.05;;;11.80;;
59052;SDS011;44843;44.728;10.396;2023-03-14T03:02:25;18.67;;;11.65;;
59052;SDS011;44843;44.728;10.396;2023-03-14T03:04:51;19.35;;;11.52;;
59052;SDS011;44843;44.728;10.396;2023-03-14T03:07:16;18.02;;;11.40;;
59052;SDS011;44843;44.728;10.396;2023-03-14T03:09:42;16.48;;;11.05;;
59052;SDS011;44843;44.728;10.396;2023-03-14T03:12:07;16.63;;;10.75;;
59052;SDS011;44843;44.728;10.396;2023-03-14T03:14:33;15.95;;;10.60;;
59052;SDS011;44843;44.728;10.396;2023-03-14T03:16:58;18.77;;;11.30;;
59052;SDS011;44843;44.728;10.396;2023-03-14T03:19:23;20.45;;;11.10;;
59052;SDS011;44843;44.728;10.396;2023-03-14T03:21:49;14.20;;;9.98;;
59052;SDS011;44843;44.728;10.396;2023-03-14T03:24:14;15.35;;;10.73;;
59052;SDS011;44843;44.728;10.396;2023-03-14T03:26:39;20.33;;;11.20;;
59052;SDS011;44843;44.728;10.396;2023-03-14T03:29:05;18.00;;;11.57;;
59052;SDS011;44843;44.728;10.396;2023-03-14T03:31:30;19.15;;;11.05;;
59052;SDS011;44843;44.728;10.396;2023-03-14T03:33:56;14.40;;;11.05;;
59052;SDS011;44843;44.728;10.396;2023-03-14T03:36:22;23.00;;;11.27;;
59052;SDS011;44843;44.728;10.396;2023-03-14T03:38:48;17.15;;;10.07;;
59052;SDS011;44843;44.728;10.396;2023-03-14T03:41:14;15.95;;;11.52;;
59052;SDS011;44843;44.728;10.396;2023-03-14T03:43:39;18.02;;;11.02;;
59052;SDS011;44843;44.728;10.396;2023-03-14T03:46:05;19.75;;;11.45;;
59052;SDS011;44843;44.728;10.396;2023-03-14T03:48:31;19.48;;;11.77;;
59052;SDS011;44843;44.728;10.396;2023-03-14T03:50:57;19.63;;;11.60;;
59052;SDS011;44843;44.728;10.396;2023-03-14T03:53:22;23.33;;;12.40;;
59052;SDS011;44843;44.728;10.396;2023-03-14T03:55:48;20.33;;;12.05;;
59052;SDS011;44843;44.728;10.396;2023-03-14T03:58:13;17.98;;;11.70;;
59052;SDS011;44843;44.728;10.396;2023-03-14T04:00:39;19.80;;;12.43;;
59052;SDS011;44843;44.728;10.396;2023-03-14T04:03:04;26.67;;;14.45;;
59052;SDS011;44843;44.728;10.396;2023-03-14T04:05:30;29.00;;;16.00;;
59052;SDS011;44843;44.728;10.396;2023-03-14T04:07:55;30.02;;;15.90;;
59052;SDS011;44843;44.728;10.396;2023-03-14T04:10:21;39.50;;;16.52;;
59052;SDS011;44843;44.728;10.396;2023-03-14T04:12:46;31.25;;;16.60;;
59052;SDS011;44843;44.728;10.396;2023-03-14T04:15:11;30.55;;;16.30;;
59052;SDS011;44843;44.728;10.396;2023-03-14T04:17:37;38.10;;;17.63;;
59052;SDS011;44843;44.728;10.396;2023-03-14T04:20:02;30.13;;;16.45;;
59052;SDS011;44843;44.728;10.396;2023-03-14T04:22:28;29.90;;;16.67;;
59052;SDS011;44843;44.728;10.396;2023-03-14T04:24:53;29.52;;;17.02;;
59052;SDS011;44843;44.728;10.396;2023-03-14T04:27:19;32.88;;;18.02;;
59052;SDS011;44843;44.728;10.396;2023-03-14T04:29:44;33.90;;;17.02;;
59052;SDS011;44843;44.728;10.396;2023-03-14T04:32:10;30.60;;;17.45;;
59052;SDS011;44843;44.728;10.396;2023-03-14T04:34:35;32.28;;;16.45;;
59052;SDS011;44843;44.728;10.396;2023-03-14T04:37:01;31.48;;;15.93;;
59052;SDS011;44843;44.728;10.396;2023-03-14T04:39:26;34.45;;;17.85;;
59052;SDS011;44843;44.728;10.396;2023-03-14T04:41:51;26.42;;;15.65;;
59052;SDS011;44843;44.728;10.396;2023-03-14T04:44:17;30.60;;;16.08;;
59052;SDS011;44843;44.728;10.396;2023-03-14T04:46:42;30.63;;;17.50;;
59052;SDS011;44843;44.728;10.396;2023-03-14T04:49:08;33.42;;;17.48;;
59052;SDS011;44843;44.728;10.396;2023-03-14T04:51:33;34.67;;;17.48;;
59052;SDS011;44843;44.728;10.396;2023-03-14T04:53:59;28.35;;;15.75;;
59052;SDS011;44843;44.728;10.396;2023-03-14T04:56:24;30.88;;;16.60;;
59052;SDS011;44843;44.728;10.396;2023-03-14T04:58:50;35.78;;;17.65;;
59052;SDS011;44843;44.728;10.396;2023-03-14T05:01:15;29.77;;;16.23;;
59052;SDS011;44843;44.728;10.396;2023-03-14T05:03:42;33.50;;;19.15;;
59052;SDS011;44843;44.728;10.396;2023-03-14T05:06:08;33.28;;;17.58;;
59052;SDS011;44843;44.728;10.396;2023-03-14T05:08:34;29.13;;;16.83;;
59052;SDS011;44843;44.728;10.396;2023-03-14T05:10:59;29.00;;;16.38;;
59052;SDS011;44843;44.728;10.396;2023-03-14T05:13:25;31.85;;;17.58;;
59052;SDS011;44843;44.728;10.396;2023-03-14T05:15:50;27.17;;;16.80;;
59052;SDS011;44843;44.728;10.396;2023-03-14T05:18:16;33.58;;;16.77;;
59052;SDS011;44843;44.728;10.396;2023-03-14T05:20:43;21.65;;;13.55;;
59052;SDS011;44843;44.728;10.396;2023-03-14T05:23:08;30.92;;;16.95;;
59052;SDS011;44843;44.728;10.396;2023-03-14T05:25:34;28.98;;;16.73;;
59052;SDS011;44843;44.728;10.396;2023-03-14T05:28:00;29.98;;;16.60;;
59052;SDS011;44843;44.728;10.396;2023-03-14T05:30:25;32.88;;;17.65;;
59052;SDS011;44843;44.728;10.396;2023-03-14T05:32:52;31.05;;;16.35;;
59052;SDS011;44843;44.728;10.396;2023-03-14T05:35:18;22.38;;;13.63;;
59052;SDS011;44843;44.728;10.396;2023-03-14T05:37:43;30.77;;;17.23;;
59052;SDS011;44843;44.728;10.396;2023-03-14T05:40:09;27.27;;;18.58;;
59052;SDS011;44843;44.728;10.396;2023-03-14T05:42:35;30.80;;;17.33;;
59052;SDS011;44843;44.728;10.396;2023-03-14T05:45:00;29.13;;;19.58;;
59052;SDS011;44843;44.728;10.396;2023-03-14T05:47:26;33.83;;;18.08;;
59052;SDS011;44843;44.728;10.396;2023-03-14T05:49:51;31.45;;;18.35;;
59052;SDS011;44843;44.728;10.396;2023-03-14T05:52:16;28.08;;;17.45;;
59052;SDS011;44843;44.728;10.396;2023-03-14T05:54:42;29.25;;;18.58;;
59052;SDS011;44843;44.728;10.396;2023-03-14T05:57:08;36.53;;;18.75;;
59052;SDS011;44843;44.728;10.396;2023-03-14T05:59:33;32.65;;;20.58;;
59052;SDS011;44843;44.728;10.396;2023-03-14T06:01:58;32.33;;;19.15;;
59052;SDS011;44843;44.728;10.396;2023-03-14T06:04:24;37.78;;;20.20;;
59052;SDS011;44843;44.728;10.396;2023-03-14T06:06:50;32.97;;;19.55;;
59052;SDS011;44843;44.728;10.396;2023-03-14T06:09:15;32.50;;;19.98;;
59052;SDS011;44843;44.728;10.396;2023-03-14T06:11:41;31.92;;;18.08;;
59052;SDS011;44843;44.728;10.396;2023-03-14T06:14:06;32.45;;;19.58;;
59052;SDS011;44843;44.728;10.396;2023-03-14T06:16:34;33.13;;;18.65;;
59052;SDS011;44843;44.728;10.396;2023-03-14T06:21:25;36.85;;;20.65;;
59052;SDS011;44843;44.728;10.396;2023-03-14T06:23:50;32.28;;;18.73;;
59052;SDS011;44843;44.728;10.396;2023-03-14T06:26:16;30.88;;;18.42;;
59052;SDS011;44843;44.728;10.396;2023-03-14T06:28:41;33.35;;;19.48;;
59052;SDS011;44843;44.728;10.396;2023-03-14T06:31:07;37.10;;;21.75;;
59052;SDS011;44843;44.728;10.396;2023-03-14T06:33:32;32.75;;;20.92;;
59052;SDS011;44843;44.728;10.396;2023-03-14T06:35:57;28.73;;;18.88;;
59052;SDS011;44843;44.728;10.396;2023-03-14T06:38:23;36.08;;;20.67;;
59052;SDS011;44843;44.728;10.396;2023-03-14T06:40:48;31.73;;;18.80;;
59052;SDS011;44843;44.728;10.396;2023-03-14T06:43:14;31.92;;;19.13;;
59052;SDS011;44843;44.728;10.396;2023-03-14T06:45:39;32.75;;;19.55;;
59052;SDS011;44843;44.728;10.396;2023-03-14T06:48:04;33.08;;;19.15;;
59052;SDS011;44843;44.728;10.396;2023-03-14T06:50:30;34.22;;;21.15;;
59052;SDS011;44843;44.728;10.396;2023-03-14T06:52:55;38.22;;;20.58;;
59052;SDS011;44843;44.728;10.396;2023-03-14T06:55:20;34.70;;;20.10;;
59052;SDS011;44843;44.728;10.396;2023-03-14T06:57:46;29.05;;;18.38;;
59052;SDS011;44843;44.728;10.396;2023-03-14T07:00:12;32.90;;;20.13;;
59052;SDS011;44843;44.728;10.396;2023-03-14T07:02:38;32.90;;;18.80;;
59052;SDS011;44843;44.728;10.396;2023-03-14T07:05:04;29.95;;;18.58;;
59052;SDS011;44843;44.728;10.396;2023-03-14T07:07:30;34.13;;;20.42;;
59052;SDS011;44843;44.728;10.396;2023-03-14T07:09:56;28.75;;;19.60;;
59052;SDS011;44843;44.728;10.396;2023-03-14T07:12:21;32.35;;;19.60;;
59052;SDS011;44843;44.728;10.396;2023-03-14T07:14:46;29.38;;;18.73;;
59052;SDS011;44843;44.728;10.396;2023-03-14T07:17:12;31.15;;;19.52;;
59052;SDS011;44843;44.728;10.396;2023-03-14T07:19:37;36.10;;;19.65;;
59052;SDS011;44843;44.728;10.396;2023-03-14T07:22:03;28.92;;;18.63;;
59052;SDS011;44843;44.728;10.396;2023-03-14T07:24:29;31.17;;;18.98;;
59052;SDS011;44843;44.728;10.396;2023-03-14T07:26:55;28.45;;;18.25;;
59052;SDS011;44843;44.728;10.396;2023-03-14T07:29:20;28.50;;;17.20;;
59052;SDS011;44843;44.728;10.396;2023-03-14T07:31:45;35.25;;;19.00;;
59052;SDS011;44843;44.728;10.396;2023-03-14T07:34:11;28.10;;;17.48;;
59052;SDS011;44843;44.728;10.396;2023-03-14T07:36:36;30.17;;;17.52;;
59052;SDS011;44843;44.728;10.396;2023-03-14T07:39:02;29.33;;;17.30;;
59052;SDS011;44843;44.728;10.396;2023-03-14T07:41:29;26.27;;;17.35;;
59052;SDS011;44843;44.728;10.396;2023-03-14T07:43:55;23.73;;;16.35;;
59052;SDS011;44843;44.728;10.396;2023-03-14T07:46:20;28.70;;;17.80;;
59052;SDS011;44843;44.728;10.396;2023-03-14T07:48:45;27.48;;;16.38;;
59052;SDS011;44843;44.728;10.396;2023-03-14T07:51:11;25.60;;;16.17;;
59052;SDS011;44843;44.728;10.396;2023-03-14T07:53:36;32.80;;;16.70;;
59052;SDS011;44843;44.728;10.396;2023-03-14T07:56:01;25.95;;;16.67;;
59052;SDS011;44843;44.728;10.396;2023-03-14T07:58:27;23.75;;;15.43;;
59052;SDS011;44843;44.728;10.396;2023-03-14T08:00:52;23.52;;;15.57;;
59052;SDS011;44843;44.728;10.396;2023-03-14T08:03:18;24.73;;;15.45;;
59052;SDS011;44843;44.728;10.396;2023-03-14T08:05:43;22.63;;;15.40;;
59052;SDS011;44843;44.728;10.396;2023-03-14T08:08:12;27.38;;;16.20;;
59052;SDS011;44843;44.728;10.396;2023-03-14T08:10:38;24.00;;;15.18;;
59052;SDS011;44843;44.728;10.396;2023-03-14T08:13:03;24.45;;;15.07;;
59052;SDS011;44843;44.728;10.396;2023-03-14T08:15:29;26.73;;;16.23;;
59052;SDS011;44843;44.728;10.396;2023-03-14T08:17:55;24.02;;;15.82;;
59052;SDS011;44843;44.728;10.396;2023-03-14T08:20:21;27.92;;;16.63;;
59052;SDS011;44843;44.728;10.396;2023-03-14T08:22:49;23.92;;;15.05;;
59052;SDS011;44843;44.728;10.396;2023-03-14T08:25:14;25.40;;;15.85;;
59052;SDS011;44843;44.728;10.396;2023-03-14T08:27:41;22.13;;;14.23;;
59052;SDS011;44843;44.728;10.396;2023-03-14T08:30:10;26.33;;;15.73;;
59052;SDS011;44843;44.728;10.396;2023-03-14T08:32:37;22.45;;;14.48;;
59052;SDS011;44843;44.728;10.396;2023-03-14T08:35:03;23.63;;;14.50;;
59052;SDS011;44843;44.728;10.396;2023-03-14T08:37:33;22.60;;;14.77;;
59052;SDS011;44843;44.728;10.396;2023-03-14T08:39:59;20.88;;;12.68;;
59052;SDS011;44843;44.728;10.396;2023-03-14T08:42:24;20.92;;;14.82;;
59052;SDS011;44843;44.728;10.396;2023-03-14T08:44:50;23.30;;;14.23;;
59052;SDS011;44843;44.728;10.396;2023-03-14T08:47:17;22.05;;;14.13;;
59052;SDS011;44843;44.728;10.396;2023-03-14T08:49:42;21.73;;;13.55;;
59052;SDS011;44843;44.728;10.396;2023-03-14T08:52:07;19.73;;;12.40;;
59052;SDS011;44843;44.728;10.396;2023-03-14T08:56:58;21.13;;;13.23;;
59052;SDS011;44843;44.728;10.396;2023-03-14T08:59:24;22.10;;;14.02;;
59052;SDS011;44843;44.728;10.396;2023-03-14T09:01:49;22.83;;;13.82;;
59052;SDS011;44843;44.728;10.396;2023-03-14T09:04:15;20.58;;;12.82;;
59052;SDS011;44843;44.728;10.396;2023-03-14T09:06:41;20.60;;;13.77;;
59052;SDS011;44843;44.728;10.396;2023-03-14T09:09:06;28.90;;;14.82;;
59052;SDS011;44843;44.728;10.396;2023-03-14T09:11:32;26.63;;;14.38;;
59052;SDS011;44843;44.728;10.396;2023-03-14T09:13:58;24.15;;;14.02;;
59052;SDS011;44843;44.728;10.396;2023-03-14T09:16:24;20.48;;;12.60;;
59052;SDS011;44843;44.728;10.396;2023-03-14T09:18:49;17.10;;;12.32;;
59052;SDS011;44843;44.728;10.396;2023-03-14T09:21:14;17.70;;;12.57;;
59052;SDS011;44843;44.728;10.396;2023-03-14T09:23:40;18.67;;;12.43;;
59052;SDS011;44843;44.728;10.396;2023-03-14T09:26:06;19.20;;;13.73;;
59052;SDS011;44843;44.728;10.396;2023-03-14T09:28:32;23.27;;;13.10;;
59052;SDS011;44843;44.728;10.396;2023-03-14T09:30:57;20.40;;;11.77;;
59052;SDS011;44843;44.728;10.396;2023-03-14T09:33:23;16.80;;;12.00;;
59052;SDS011;44843;44.728;10.396;2023-03-14T09:35:48;16.65;;;11.15;;
59052;SDS011;44843;44.728;10.396;2023-03-14T09:38:14;20.45;;;11.73;;
59052;SDS011;44843;44.728;10.396;2023-03-14T09:40:40;21.48;;;12.82;;
59052;SDS011;44843;44.728;10.396;2023-03-14T09:43:08;21.50;;;11.70;;
59052;SDS011;44843;44.728;10.396;2023-03-14T09:45:37;20.17;;;12.38;;
59052;SDS011;44843;44.728;10.396;2023-03-14T09:48:05;20.20;;;12.82;;
59052;SDS011;44843;44.728;10.396;2023-03-14T09:50:39;18.05;;;12.63;;
59052;SDS011;44843;44.728;10.396;2023-03-14T09:53:12;19.33;;;12.82;;
59052;SDS011;44843;44.728;10.396;2023-03-14T09:55:40;23.23;;;13.05;;
59052;SDS011;44843;44.728;10.396;2023-03-14T09:58:11;21.20;;;13.35;;
59052;SDS011;44843;44.728;10.396;2023-03-14T10:00:39;22.00;;;12.50;;
59052;SDS011;44843;44.728;10.396;2023-03-14T10:05:48;18.17;;;12.45;;
59052;SDS011;44843;44.728;10.396;2023-03-14T10:08:13;21.52;;;12.70;;
59052;SDS011;44843;44.728;10.396;2023-03-14T10:10:39;24.48;;;12.90;;
59052;SDS011;44843;44.728;10.396;2023-03-14T10:13:22;20.30;;;13.15;;
59052;SDS011;44843;44.728;10.396;2023-03-14T10:15:52;21.33;;;13.05;;
59052;SDS011;44843;44.728;10.396;2023-03-14T10:18:20;20.30;;;12.52;;
59052;SDS011;44843;44.728;10.396;2023-03-14T10:20:49;17.58;;;12.82;;
59052;SDS011;44843;44.728;10.396;2023-03-14T10:23:27;20.85;;;12.60;;
59052;SDS011;44843;44.728;10.396;2023-03-14T10:25:59;20.65;;;12.00;;
59052;SDS011;44843;44.728;10.396;2023-03-14T10:30:52;19.48;;;11.10;;
59052;SDS011;44843;44.728;10.396;2023-03-14T10:33:26;18.52;;;11.15;;
59052;SDS011;44843;44.728;10.396;2023-03-14T10:38:30;15.20;;;10.50;;
59052;SDS011;44843;44.728;10.396;2023-03-14T10:41:00;16.77;;;10.45;;
59052;SDS011;44843;44.728;10.396;2023-03-14T10:43:27;17.10;;;11.15;;
59052;SDS011;44843;44.728;10.396;2023-03-14T10:45:57;16.48;;;10.15;;
59052;SDS011;44843;44.728;10.396;2023-03-14T10:51:01;19.33;;;10.73;;
59052;SDS011;44843;44.728;10.396;2023-03-14T10:53:33;14.27;;;9.73;;
59052;SDS011;44843;44.728;10.396;2023-03-14T10:56:03;15.88;;;10.75;;
59052;SDS011;44843;44.728;10.396;2023-03-14T10:58:30;16.65;;;9.45;;
59052;SDS011;44843;44.728;10.396;2023-03-14T11:04:07;17.73;;;8.73;;
59052;SDS011;44843;44.728;10.396;2023-03-14T11:09:27;14.57;;;8.90;;
59052;SDS011;44843;44.728;10.396;2023-03-14T11:12:47;13.07;;;9.27;;
59052;SDS011;44843;44.728;10.396;2023-03-14T11:17:50;15.57;;;8.45;;
59052;SDS011;44843;44.728;10.396;2023-03-14T11:31:50;14.85;;;7.28;;
59052;SDS011;44843;44.728;10.396;2023-03-14T11:34:29;13.45;;;8.20;;
59052;SDS011;44843;44.728;10.396;2023-03-14T11:40:34;11.37;;;7.90;;
59052;SDS011;44843;44.728;10.396;2023-03-14T11:42:42;13.35;;;7.65;;
59052;SDS011;44843;44.728;10.396;2023-03-14T11:45:19;10.73;;;7.07;;
59052;SDS011;44843;44.728;10.396;2023-03-14T11:47:55;12.50;;;7.88;;
59052;SDS011;44843;44.728;10.396;2023-03-14T11:50:31;11.82;;;6.95;;
59052;SDS011;44843;44.728;10.396;2023-03-14T11:53:19;11.13;;;7.60;;
59052;SDS011;44843;44.728;10.396;2023-03-14T11:55:50;14.63;;;7.80;;
59052;SDS011;44843;44.728;10.396;2023-03-14T11:58:29;10.82;;;7.35;;
59052;SDS011;44843;44.728;10.396;2023-03-14T12:01:03;12.25;;;7.07;;
59052;SDS011;44843;44.728;10.396;2023-03-14T12:06:19;12.75;;;7.90;;
59052;SDS011;44843;44.728;10.396;2023-03-14T12:08:50;12.10;;;8.20;;
59052;SDS011;44843;44.728;10.396;2023-03-14T12:13:50;11.90;;;7.20;;
59052;SDS011;44843;44.728;10.396;2023-03-14T12:18:48;15.13;;;8.50;;
59052;SDS011;44843;44.728;10.396;2023-03-14T12:21:14;14.98;;;8.20;;
59052;SDS011;44843;44.728;10.396;2023-03-14T12:23:44;17.27;;;9.60;;
59052;SDS011;44843;44.728;10.396;2023-03-14T12:26:57;14.82;;;8.20;;
59052;SDS011;44843;44.728;10.396;2023-03-14T12:29:17;12.10;;;8.38;;
59052;SDS011;44843;44.728;10.396;2023-03-14T12:31:44;17.42;;;9.07;;
59052;SDS011;44843;44.728;10.396;2023-03-14T12:42:22;15.00;;;9.07;;
59052;SDS011;44843;44.728;10.396;2023-03-14T12:50:18;14.15;;;8.10;;
59052;SDS011;44843;44.728;10.396;2023-03-14T12:53:28;13.70;;;8.00;;
59052;SDS011;44843;44.728;10.396;2023-03-14T13:01:36;13.85;;;7.50;;
59052;SDS011;44843;44.728;10.396;2023-03-14T13:04:10;13.73;;;8.80;;
59052;SDS011;44843;44.728;10.396;2023-03-14T13:06:46;14.85;;;8.32;;
59052;SDS011;44843;44.728;10.396;2023-03-14T13:12:14;12.27;;;8.63;;
59052;SDS011;44843;44.728;10.396;2023-03-14T13:14:43;14.05;;;8.13;;
59052;SDS011;44843;44.728;10.396;2023-03-14T13:17:12;8.18;;;6.53;;
59052;SDS011;44843;44.728;10.396;2023-03-14T13:19:39;11.15;;;6.88;;
59052;SDS011;44843;44.728;10.396;2023-03-14T13:22:06;10.93;;;6.30;;
59052;SDS011;44843;44.728;10.396;2023-03-14T13:24:41;7.50;;;5.50;;
59052;SDS011;44843;44.728;10.396;2023-03-14T13:27:08;11.35;;;6.68;;
59052;SDS011;44843;44.728;10.396;2023-03-14T13:29:45;8.68;;;5.75;;
59052;SDS011;44843;44.728;10.396;2023-03-14T13:32:21;8.90;;;6.07;;
59052;SDS011;44843;44.728;10.396;2023-03-14T13:34:50;11.27;;;5.95;;
59052;SDS011;44843;44.728;10.396;2023-03-14T13:37:20;11.25;;;6.35;;
59052;SDS011;44843;44.728;10.396;2023-03-14T13:39:54;9.15;;;6.45;;
59052;SDS011;44843;44.728;10.396;2023-03-14T13:42:21;9.25;;;5.55;;
59052;SDS011;44843;44.728;10.396;2023-03-14T13:44:50;9.55;;;6.20;;
59052;SDS011;44843;44.728;10.396;2023-03-14T13:47:18;9.15;;;6.25;;
59052;SDS011;44843;44.728;10.396;2023-03-14T13:49:46;8.40;;;6.07;;
59052;SDS011;44843;44.728;10.396;2023-03-14T13:52:29;8.90;;;5.20;;
59052;SDS011;44843;44.728;10.396;2023-03-14T13:57:24;7.45;;;5.47;;
59052;SDS011;44843;44.728;10.396;2023-03-14T14:00:05;8.05;;;6.22;;
59052;SDS011;44843;44.728;10.396;2023-03-14T14:02:35;7.97;;;5.78;;
59052;SDS011;44843;44.728;10.396;2023-03-14T14:05:02;7.95;;;5.75;;
59052;SDS011;44843;44.728;10.396;2023-03-14T14:07:29;12.80;;;5.70;;
59052;SDS011;44843;44.728;10.396;2023-03-14T14:09:54;9.80;;;6.18;;
59052;SDS011;44843;44.728;10.396;2023-03-14T14:12:26;8.27;;;5.60;;
59052;SDS011;44843;44.728;10.396;2023-03-14T14:15:10;13.25;;;7.80;;
59052;SDS011;44843;44.728;10.396;2023-03-14T14:17:41;9.15;;;6.35;;
59052;SDS011;44843;44.728;10.396;2023-03-14T14:20:14;8.45;;;5.88;;
59052;SDS011;44843;44.728;10.396;2023-03-14T14:22:44;12.43;;;6.85;;
59052;SDS011;44843;44.728;10.396;2023-03-14T14:25:12;9.25;;;5.97;;
59052;SDS011;44843;44.728;10.396;2023-03-14T14:27:41;9.68;;;6.68;;
59052;SDS011;44843;44.728;10.396;2023-03-14T14:32:42;10.23;;;6.05;;
59052;SDS011;44843;44.728;10.396;2023-03-14T14:35:10;9.50;;;6.25;;
59052;SDS011;44843;44.728;10.396;2023-03-14T14:37:46;7.97;;;6.18;;
59052;SDS011;44843;44.728;10.396;2023-03-14T14:40:18;8.07;;;6.55;;
59052;SDS011;44843;44.728;10.396;2023-03-14T14:42:47;9.95;;;6.70;;
59052;SDS011;44843;44.728;10.396;2023-03-14T14:45:20;10.32;;;6.70;;
59052;SDS011;44843;44.728;10.396;2023-03-14T14:47:57;12.68;;;6.30;;
59052;SDS011;44843;44.728;10.396;2023-03-14T14:50:33;8.05;;;5.93;;
59052;SDS011;44843;44.728;10.396;2023-03-14T14:53:16;8.90;;;6.43;;
59052;SDS011;44843;44.728;10.396;2023-03-14T14:55:49;11.07;;;6.93;;
59052;SDS011;44843;44.728;10.396;2023-03-14T15:01:03;9.60;;;6.55;;
59052;SDS011;44843;44.728;10.396;2023-03-14T15:03:32;11.10;;;6.15;;
59052;SDS011;44843;44.728;10.396;2023-03-14T15:05:59;7.30;;;5.85;;
59052;SDS011;44843;44.728;10.396;2023-03-14T15:08:26;9.02;;;6.40;;
59052;SDS011;44843;44.728;10.396;2023-03-14T15:10:52;8.10;;;6.60;;
59052;SDS011;44843;44.728;10.396;2023-03-14T15:13:19;8.55;;;6.13;;
59052;SDS011;44843;44.728;10.396;2023-03-14T15:15:44;8.27;;;6.18;;
59052;SDS011;44843;44.728;10.396;2023-03-14T15:18:15;10.15;;;6.28;;
59052;SDS011;44843;44.728;10.396;2023-03-14T15:20:44;11.40;;;6.03;;
59052;SDS011;44843;44.728;10.396;2023-03-14T15:23:11;9.95;;;6.55;;
59052;SDS011;44843;44.728;10.396;2023-03-14T15:25:37;11.15;;;6.43;;
59052;SDS011;44843;44.728;10.396;2023-03-14T15:28:09;9.30;;;6.65;;
59052;SDS011;44843;44.728;10.396;2023-03-14T15:30:40;9.05;;;7.18;;
59052;SDS011;44843;44.728;10.396;2023-03-14T15:33:05;7.63;;;6.10;;
59052;SDS011;44843;44.728;10.396;2023-03-14T15:35:33;10.45;;;6.63;;
59052;SDS011;44843;44.728;10.396;2023-03-14T15:38:00;11.55;;;6.28;;
59052;SDS011;44843;44.728;10.396;2023-03-14T15:40:25;10.45;;;6.55;;
59052;SDS011;44843;44.728;10.396;2023-03-14T15:42:51;10.35;;;6.43;;
59052;SDS011;44843;44.728;10.396;2023-03-14T15:45:16;10.48;;;6.53;;
59052;SDS011;44843;44.728;10.396;2023-03-14T15:47:41;13.32;;;6.55;;